Terminal Aerodrome Forecast
Issued by NWS Des Moines, IA

Home | Current Version | Previous Version | Text Only | Print | Product List | Glossary On
Versions: 1 2 3 4 5 6 7 8 9 10 11 12 13 14 15 16
000
FTUS43 KDMX 260520
TAFDSM
TAF
KDSM 260520Z 2606/2706 20003KT P6SM SCT060 BKN110
     FM260900 14006KT P6SM VCSH BKN040
     FM261400 VRB05KT P6SM VCSH OVC030
      TEMPO 2615/2618 6SM -TSRA OVC030CB
     FM262000 34011KT P6SM BKN035
     FM262300 33008KT P6SM BKN030
     FM270300 10004KT P6SM SKC=

USA.gov is the U.S. government's official web portal to all federal, state and local government web resources and services.